createdAt,value
2023-06-29T00:00:06.971Z,939.52
2023-06-29T00:01:07.743Z,939.52
2023-06-29T00:02:07.850Z,939.52
2023-06-29T00:03:08.054Z,939.53
2023-06-29T00:04:08.241Z,939.47
2023-06-29T00:05:09.198Z,939.48
2023-06-29T00:06:09.720Z,939.44
2023-06-29T00:07:10.283Z,939.46
2023-06-29T00:08:10.958Z,939.46
2023-06-29T00:09:11.524Z,939.46
2023-06-29T00:10:12.450Z,939.44
2023-06-29T00:11:13.372Z,939.43
2023-06-29T00:12:13.683Z,939.45
2023-06-29T00:13:14.427Z,939.46
2023-06-29T00:14:15.044Z,939.41
2023-06-29T00:15:15.962Z,939.41
2023-06-29T00:16:16.735Z,939.41
2023-06-29T00:17:17.720Z,939.43
2023-06-29T00:18:18.408Z,939.4
2023-06-29T00:19:19.161Z,939.4
2023-06-29T00:20:19.809Z,939.41
2023-06-29T00:21:21.685Z,939.43
2023-06-29T00:22:20.742Z,939.4
2023-06-29T00:23:21.582Z,939.38
2023-06-29T00:24:22.126Z,939.38
2023-06-29T00:25:23.041Z,939.34
2023-06-29T00:26:23.767Z,939.34
2023-06-29T00:27:24.164Z,939.35
2023-06-29T00:28:24.906Z,939.34
2023-06-29T00:29:25.989Z,939.38
2023-06-29T00:30:26.281Z,939.34
2023-06-29T00:31:27.107Z,939.34
2023-06-29T00:32:27.244Z,939.37
2023-06-29T00:33:28.041Z,939.32
2023-06-29T00:34:29.061Z,939.31
2023-06-29T00:35:29.818Z,939.31
2023-06-29T00:36:30.074Z,939.25
2023-06-29T00:37:31.007Z,939.25
2023-06-29T00:38:31.576Z,939.23
2023-06-29T00:39:31.911Z,939.2
2023-06-29T00:40:32.839Z,939.14
2023-06-29T00:41:33.590Z,939.16
2023-06-29T00:42:34.483Z,939.16
2023-06-29T00:43:34.817Z,939.16
2023-06-29T00:44:35.450Z,939.18
2023-06-29T00:45:35.944Z,939.19
2023-06-29T00:46:36.294Z,939.15
2023-06-29T00:47:36.996Z,939.18
2023-06-29T00:48:37.904Z,939.16
2023-06-29T00:49:38.642Z,939.14
2023-06-29T00:50:39.625Z,939.19
2023-06-29T00:51:40.346Z,939.16
2023-06-29T00:52:41.236Z,939.15
2023-06-29T00:53:41.738Z,939.14
2023-06-29T00:54:41.913Z,939.19
2023-06-29T00:55:42.230Z,939.18
2023-06-29T00:56:43.055Z,939.2
2023-06-29T00:57:43.747Z,939.23
2023-06-29T00:58:44.253Z,939.12
2023-06-29T00:59:44.428Z,939.17
2023-06-29T01:00:45.186Z,939.17
2023-06-29T01:01:45.816Z,939.16
2023-06-29T01:02:46.730Z,939.12
2023-06-29T01:03:47.438Z,939.11
2023-06-29T01:04:47.730Z,939.15
2023-06-29T01:05:48.704Z,939.09
2023-06-29T01:06:49.241Z,939.13
2023-06-29T01:07:49.452Z,939.11
2023-06-29T01:08:50.172Z,939.13
2023-06-29T01:09:50.712Z,939.11
2023-06-29T01:10:51.213Z,939.08
2023-06-29T01:11:51.917Z,939.08
2023-06-29T01:12:52.613Z,939.09
2023-06-29T01:13:53.350Z,939.07
2023-06-29T01:14:53.571Z,939.06
2023-06-29T01:15:54.011Z,939.04
2023-06-29T01:16:54.961Z,939.03
2023-06-29T01:17:55.888Z,938.98
2023-06-29T01:18:56.627Z,939.03
2023-06-29T01:19:57.320Z,939.01
2023-06-29T01:20:58.302Z,938.98
2023-06-29T01:21:59.224Z,938.97
2023-06-29T01:23:00.491Z,939
2023-06-29T01:24:00.715Z,938.97
2023-06-29T01:25:01.165Z,938.97
2023-06-29T01:26:01.319Z,939
2023-06-29T01:27:01.931Z,939.01
2023-06-29T01:28:02.659Z,938.95
2023-06-29T01:29:02.978Z,938.93
2023-06-29T01:30:03.502Z,938.93
2023-06-29T01:31:04.014Z,938.94
2023-06-29T01:32:04.259Z,938.91
2023-06-29T01:33:04.684Z,938.91
2023-06-29T01:34:04.866Z,938.88
2023-06-29T01:35:05.105Z,938.89
2023-06-29T01:36:05.228Z,938.88
2023-06-29T01:37:06.255Z,938.83
2023-06-29T01:38:06.953Z,938.79
2023-06-29T01:39:07.674Z,938.8
2023-06-29T01:40:08.185Z,938.83
2023-06-29T01:41:08.400Z,938.8
2023-06-29T01:42:08.911Z,938.79
2023-06-29T01:43:09.990Z,938.84
2023-06-29T01:44:10.680Z,938.8
2023-06-29T01:45:11.100Z,938.76
2023-06-29T01:46:12.017Z,938.71
2023-06-29T01:47:12.127Z,938.69
2023-06-29T01:48:12.980Z,938.71
2023-06-29T01:49:13.467Z,938.68
2023-06-29T01:50:13.603Z,938.67
2023-06-29T01:51:14.672Z,938.71
2023-06-29T01:52:14.876Z,938.72
2023-06-29T01:53:15.000Z,938.72
2023-06-29T01:54:15.452Z,938.68
2023-06-29T01:55:15.677Z,938.69
2023-06-29T01:56:16.586Z,938.69
2023-06-29T01:57:17.502Z,938.66
2023-06-29T01:58:18.227Z,938.65
2023-06-29T01:59:19.111Z,938.67
2023-06-29T02:00:19.826Z,938.63
2023-06-29T02:01:20.097Z,938.66
2023-06-29T02:02:20.500Z,938.63
2023-06-29T02:03:21.557Z,938.62
2023-06-29T02:04:21.812Z,938.62
2023-06-29T02:05:22.568Z,938.64
2023-06-29T02:06:22.979Z,938.64
2023-06-29T02:07:23.756Z,938.63
2023-06-29T02:08:23.913Z,938.63
2023-06-29T02:09:24.438Z,938.63
2023-06-29T02:10:25.148Z,938.61
2023-06-29T02:11:25.882Z,938.61
2023-06-29T02:12:26.608Z,938.63
2023-06-29T02:13:27.204Z,938.58
2023-06-29T02:14:28.120Z,938.59
2023-06-29T02:15:29.124Z,938.59
2023-06-29T02:16:29.860Z,938.61
2023-06-29T02:17:30.784Z,938.59
2023-06-29T02:18:31.535Z,938.57
2023-06-29T02:19:32.065Z,938.58
2023-06-29T02:20:32.996Z,938.53
2023-06-29T02:21:34.074Z,938.59
2023-06-29T02:22:34.918Z,938.59
2023-06-29T02:23:35.623Z,938.6
2023-06-29T02:24:36.564Z,938.59
2023-06-29T02:25:37.117Z,938.58
2023-06-29T02:26:37.666Z,938.57
2023-06-29T02:27:38.589Z,938.58
2023-06-29T02:28:39.477Z,938.61
2023-06-29T02:29:40.200Z,938.59
2023-06-29T02:30:40.899Z,938.57
2023-06-29T02:31:41.408Z,938.56
2023-06-29T02:32:41.714Z,938.52
2023-06-29T02:33:42.454Z,938.54
2023-06-29T02:34:43.392Z,938.56
2023-06-29T02:35:43.805Z,938.57
2023-06-29T02:36:43.999Z,938.56
2023-06-29T02:37:44.575Z,938.55
2023-06-29T02:38:45.139Z,938.55
2023-06-29T02:39:45.899Z,938.58
2023-06-29T02:40:46.845Z,938.53
2023-06-29T02:41:47.780Z,938.51
2023-06-29T02:42:48.499Z,938.52
2023-06-29T02:43:49.202Z,938.57
2023-06-29T02:44:49.920Z,938.5
2023-06-29T02:45:50.519Z,938.55
2023-06-29T02:46:51.565Z,938.54
2023-06-29T02:47:52.368Z,938.55
2023-06-29T02:48:52.701Z,938.56
2023-06-29T02:49:53.248Z,938.55
2023-06-29T02:50:53.989Z,938.54
2023-06-29T02:51:54.140Z,938.55
2023-06-29T02:52:54.709Z,938.52
2023-06-29T02:53:55.424Z,938.53
2023-06-29T02:54:56.296Z,938.53
2023-06-29T02:55:56.884Z,938.6
2023-06-29T02:56:57.028Z,938.56
2023-06-29T02:57:57.558Z,938.54
2023-06-29T02:58:58.508Z,938.54
2023-06-29T02:59:59.241Z,938.52
2023-06-29T03:00:59.957Z,938.5
2023-06-29T03:02:00.924Z,938.51
2023-06-29T03:03:02.011Z,938.52
2023-06-29T03:04:02.660Z,938.49
2023-06-29T03:05:03.553Z,938.51
2023-06-29T03:06:04.379Z,938.44
2023-06-29T03:07:07.151Z,938.47
2023-06-29T03:08:05.745Z,938.44
2023-06-29T03:09:06.277Z,938.42
2023-06-29T03:10:07.005Z,938.48
2023-06-29T03:11:07.946Z,938.43
2023-06-29T03:12:08.531Z,938.47
2023-06-29T03:13:09.214Z,938.45
2023-06-29T03:14:09.753Z,938.45
2023-06-29T03:15:10.055Z,938.47
2023-06-29T03:16:11.384Z,938.47
2023-06-29T03:17:11.552Z,938.49
2023-06-29T03:18:12.435Z,938.49
2023-06-29T03:19:12.986Z,938.52
2023-06-29T03:20:13.722Z,938.55
2023-06-29T03:21:18.131Z,938.55
2023-06-29T03:22:15.553Z,938.56
2023-06-29T03:23:15.940Z,938.57
2023-06-29T03:24:16.631Z,938.53
2023-06-29T03:25:17.144Z,938.56
2023-06-29T03:26:17.720Z,938.53
2023-06-29T03:27:17.863Z,938.51
2023-06-29T03:28:18.891Z,938.53
2023-06-29T03:29:19.002Z,938.51
2023-06-29T03:30:19.491Z,938.49
2023-06-29T03:31:20.303Z,938.44
2023-06-29T03:32:20.374Z,938.48
2023-06-29T03:33:21.140Z,938.46
2023-06-29T03:34:21.832Z,938.44
2023-06-29T03:35:22.579Z,938.48
2023-06-29T03:36:22.853Z,938.43
2023-06-29T03:37:23.859Z,938.42
2023-06-29T03:38:24.586Z,938.42
2023-06-29T03:39:25.508Z,938.42
2023-06-29T03:40:25.791Z,938.43
2023-06-29T03:41:26.334Z,938.41
2023-06-29T03:42:26.587Z,938.44
2023-06-29T03:43:27.285Z,938.4
2023-06-29T03:44:28.190Z,938.44
2023-06-29T03:45:29.114Z,938.43
2023-06-29T03:46:29.753Z,938.4
2023-06-29T03:47:30.219Z,938.38
2023-06-29T03:48:30.567Z,938.42
2023-06-29T03:49:30.852Z,938.43
2023-06-29T03:50:31.657Z,938.42
2023-06-29T03:51:32.025Z,938.4
2023-06-29T03:52:32.988Z,938.4
2023-06-29T03:53:33.738Z,938.41
2023-06-29T03:54:34.439Z,938.4
2023-06-29T03:55:34.736Z,938.38
2023-06-29T03:56:34.895Z,938.4
2023-06-29T03:57:35.775Z,938.4
2023-06-29T03:58:36.479Z,938.39
2023-06-29T03:59:36.988Z,938.4
2023-06-29T04:00:37.758Z,938.4
2023-06-29T04:01:38.490Z,938.38
2023-06-29T04:02:38.736Z,938.36
2023-06-29T04:03:39.495Z,938.33
2023-06-29T04:04:40.573Z,938.35
2023-06-29T04:05:41.476Z,938.34
2023-06-29T04:06:42.191Z,938.34
2023-06-29T04:07:42.567Z,938.33
2023-06-29T04:08:42.908Z,938.31
2023-06-29T04:09:43.019Z,938.32
2023-06-29T04:10:43.539Z,938.34
2023-06-29T04:11:44.236Z,938.3
2023-06-29T04:12:44.967Z,938.31
2023-06-29T04:13:45.756Z,938.3
2023-06-29T04:14:46.058Z,938.31
2023-06-29T04:15:46.297Z,938.34
2023-06-29T04:16:46.551Z,938.33
2023-06-29T04:17:47.375Z,938.33
2023-06-29T04:18:47.445Z,938.31
2023-06-29T04:19:48.177Z,938.31
2023-06-29T04:20:49.104Z,938.32
2023-06-29T04:21:49.260Z,938.32
2023-06-29T04:22:49.428Z,938.32
2023-06-29T04:23:50.382Z,938.31
2023-06-29T04:24:51.299Z,938.32
2023-06-29T04:25:52.019Z,938.34
2023-06-29T04:26:52.611Z,938.34
2023-06-29T04:27:53.362Z,938.33
2023-06-29T04:28:53.905Z,938.31
2023-06-29T04:29:54.835Z,938.31
2023-06-29T04:30:54.981Z,938.28
2023-06-29T04:31:55.789Z,938.29
2023-06-29T04:32:56.769Z,938.29
2023-06-29T04:33:57.280Z,938.3
2023-06-29T04:34:57.765Z,938.29
2023-06-29T04:35:58.508Z,938.33
2023-06-29T04:36:58.661Z,938.33
2023-06-29T04:37:59.300Z,938.3
2023-06-29T04:39:00.191Z,938.32
2023-06-29T04:40:01.134Z,938.32
2023-06-29T04:41:01.457Z,938.33
2023-06-29T04:42:02.504Z,938.29
2023-06-29T04:43:03.368Z,938.31
2023-06-29T04:44:04.339Z,938.29
2023-06-29T04:45:05.072Z,938.29
2023-06-29T04:46:05.889Z,938.32
2023-06-29T04:47:06.866Z,938.32
2023-06-29T04:48:07.730Z,938.32
2023-06-29T04:49:08.690Z,938.32
2023-06-29T04:50:09.595Z,938.27
2023-06-29T04:51:09.901Z,938.26
2023-06-29T04:52:10.677Z,938.22
2023-06-29T04:53:11.453Z,938.21
2023-06-29T04:54:11.693Z,938.2
2023-06-29T04:55:12.448Z,938.19
2023-06-29T04:56:13.367Z,938.19
2023-06-29T04:57:13.564Z,938.19
2023-06-29T04:58:14.524Z,938.15
2023-06-29T04:59:15.262Z,938.17
2023-06-29T05:00:15.965Z,938.17
2023-06-29T05:01:16.800Z,938.2
2023-06-29T05:02:17.588Z,938.14
2023-06-29T05:03:18.059Z,938.16
2023-06-29T05:04:18.491Z,938.12
2023-06-29T05:05:19.418Z,938.15
2023-06-29T05:06:20.331Z,938.16
2023-06-29T05:07:20.591Z,938.15
2023-06-29T05:08:20.832Z,938.12
2023-06-29T05:09:21.572Z,938.13
2023-06-29T05:10:22.503Z,938.16
2023-06-29T05:11:23.291Z,938.17
2023-06-29T05:12:23.392Z,938.14
2023-06-29T05:13:23.943Z,938.16
2023-06-29T05:14:24.457Z,938.14
2023-06-29T05:15:25.368Z,938.15
2023-06-29T05:16:26.188Z,938.11
2023-06-29T05:17:26.662Z,938.14
2023-06-29T05:18:27.248Z,938.12
2023-06-29T05:19:27.892Z,938.13
2023-06-29T05:20:28.430Z,938.13
2023-06-29T05:21:29.153Z,938.12
2023-06-29T05:22:29.490Z,938.11
2023-06-29T05:23:30.533Z,938.17
2023-06-29T05:24:31.460Z,938.19
2023-06-29T05:25:32.467Z,938.19
2023-06-29T05:26:32.743Z,938.17
2023-06-29T05:27:34.226Z,938.17
2023-06-29T05:28:34.004Z,938.15
2023-06-29T05:29:34.239Z,938.13
2023-06-29T05:30:34.962Z,938.12
2023-06-29T05:31:36.033Z,938.13
2023-06-29T05:32:37.027Z,938.1
2023-06-29T05:33:37.460Z,938.11
2023-06-29T05:34:38.172Z,938.1
2023-06-29T05:35:38.849Z,938.06
2023-06-29T05:36:39.594Z,938.09
2023-06-29T05:37:40.609Z,938.12
2023-06-29T05:38:41.192Z,938.13
2023-06-29T05:39:41.730Z,938.13
2023-06-29T05:40:42.809Z,938.16
2023-06-29T05:41:42.800Z,938.13
2023-06-29T05:42:43.719Z,938.16
2023-06-29T05:43:44.673Z,938.11
2023-06-29T05:44:45.579Z,938.13
2023-06-29T05:45:46.120Z,938.12
2023-06-29T05:46:47.015Z,938.08
2023-06-29T05:47:47.738Z,938.09
2023-06-29T05:48:47.906Z,938.1
2023-06-29T05:49:48.237Z,938.12
2023-06-29T05:50:48.724Z,938.11
2023-06-29T05:51:49.234Z,938.12
2023-06-29T05:52:51.106Z,938.09
2023-06-29T05:53:50.206Z,938.1
2023-06-29T05:54:50.942Z,938.11
2023-06-29T05:55:51.828Z,938.11
2023-06-29T05:56:52.444Z,938.13
2023-06-29T05:57:52.535Z,938.12
2023-06-29T05:58:52.758Z,938.12
2023-06-29T05:59:53.455Z,938.11
2023-06-29T06:00:54.215Z,938.09
2023-06-29T06:01:55.231Z,938.08
2023-06-29T06:02:56.213Z,938.08
2023-06-29T06:03:56.452Z,938.08
2023-06-29T06:04:56.982Z,938.11
2023-06-29T06:05:57.545Z,938.12
2023-06-29T06:06:58.278Z,938.09
2023-06-29T06:07:59.073Z,938.11
2023-06-29T06:08:59.608Z,938.09
2023-06-29T06:09:59.743Z,938.11
2023-06-29T06:11:00.552Z,938.09
2023-06-29T06:12:01.291Z,938.1
2023-06-29T06:13:02.081Z,938.06
2023-06-29T06:14:02.620Z,938.08
2023-06-29T06:15:03.153Z,938.06
2023-06-29T06:16:04.118Z,938.11
2023-06-29T06:17:04.321Z,938.05
2023-06-29T06:18:05.114Z,938.05
2023-06-29T06:19:05.262Z,938.08
2023-06-29T06:20:05.639Z,938.07
2023-06-29T06:21:06.601Z,938.09
2023-06-29T06:22:07.526Z,938.09
2023-06-29T06:23:08.044Z,938.08
2023-06-29T06:24:08.271Z,938.1
2023-06-29T06:25:09.213Z,938.1
2023-06-29T06:26:09.370Z,938.11
2023-06-29T06:27:10.064Z,938.11
2023-06-29T06:28:11.002Z,938.11
2023-06-29T06:29:11.823Z,938.14
2023-06-29T06:30:12.740Z,938.1
2023-06-29T06:31:24.364Z,938.1
2023-06-29T06:32:14.151Z,938.09
2023-06-29T06:33:14.854Z,938.07
2023-06-29T06:34:15.561Z,938.03
2023-06-29T06:36:16.021Z,938.03
2023-06-29T06:37:16.245Z,938.03
2023-06-29T06:38:16.544Z,938.04
2023-06-29T06:40:17.651Z,938
2023-06-29T06:42:19.377Z,937.97
2023-06-29T06:43:20.236Z,937.92
2023-06-29T06:44:20.975Z,937.95
2023-06-29T06:45:21.492Z,937.93
2023-06-29T06:46:22.235Z,937.95
2023-06-29T06:47:22.504Z,937.91
2023-06-29T06:48:22.979Z,937.92
2023-06-29T06:49:23.734Z,937.94
2023-06-29T06:50:24.800Z,937.88
2023-06-29T06:51:25.822Z,937.91
2023-06-29T06:52:26.755Z,937.92
2023-06-29T06:53:27.511Z,937.93
2023-06-29T06:54:27.691Z,937.93
2023-06-29T06:55:28.445Z,937.93
2023-06-29T06:56:29.354Z,937.92
2023-06-29T06:57:29.686Z,937.94
2023-06-29T06:58:30.395Z,937.92
2023-06-29T06:59:30.532Z,937.94
2023-06-29T07:00:31.041Z,937.89
2023-06-29T07:01:31.652Z,937.88
2023-06-29T07:02:32.656Z,937.85
2023-06-29T07:03:33.728Z,937.85
2023-06-29T07:04:34.500Z,937.84
2023-06-29T07:05:34.648Z,937.86
2023-06-29T07:06:35.412Z,937.9
2023-06-29T07:07:36.218Z,937.86
2023-06-29T07:08:36.252Z,937.86
2023-06-29T07:09:36.590Z,937.87
2023-06-29T07:10:37.369Z,937.87
2023-06-29T07:11:38.113Z,937.9
2023-06-29T07:12:38.882Z,937.87
2023-06-29T07:13:39.795Z,937.86
2023-06-29T07:14:40.491Z,937.87
2023-06-29T07:15:41.228Z,937.9
2023-06-29T07:16:42.195Z,937.89
2023-06-29T07:17:42.433Z,937.9
2023-06-29T07:18:43.311Z,937.9
2023-06-29T07:24:20.786Z,937.87
2023-06-29T07:25:21.617Z,937.86
2023-06-29T07:26:22.482Z,937.85
2023-06-29T07:27:23.027Z,937.89
2023-06-29T07:28:23.793Z,937.9
2023-06-29T07:29:24.925Z,937.92
2023-06-29T07:30:25.813Z,937.85
2023-06-29T07:31:26.155Z,937.8
2023-06-29T07:32:26.704Z,937.8
2023-06-29T07:33:27.723Z,937.8
2023-06-29T07:34:28.196Z,937.79
2023-06-29T07:35:28.718Z,937.84
2023-06-29T07:36:28.932Z,937.85
2023-06-29T07:37:29.650Z,937.83
2023-06-29T07:38:30.576Z,937.83
2023-06-29T07:39:31.546Z,937.79
2023-06-29T07:40:32.579Z,937.81
2023-06-29T07:41:32.888Z,937.81
2023-06-29T07:42:39.254Z,937.8
2023-06-29T07:43:33.685Z,937.83
2023-06-29T07:44:34.184Z,937.83
2023-06-29T07:45:34.399Z,937.8
2023-06-29T07:46:34.649Z,937.82
2023-06-29T07:47:35.035Z,937.75
2023-06-29T07:48:35.687Z,937.77
2023-06-29T07:49:36.480Z,937.83
2023-06-29T07:50:37.387Z,937.84
2023-06-29T07:51:38.477Z,937.83
2023-06-29T07:52:39.243Z,937.77
2023-06-29T07:53:40.177Z,937.84
2023-06-29T07:54:41.219Z,937.8
2023-06-29T07:55:42.646Z,937.84
2023-06-29T07:58:43.302Z,937.95
2023-06-29T07:59:43.825Z,937.94
2023-06-29T08:00:44.801Z,937.93
2023-06-29T08:01:45.632Z,937.88
2023-06-29T08:02:45.918Z,937.91
2023-06-29T08:04:00.771Z,937.89
2023-06-29T08:06:51.565Z,937.9
2023-06-29T08:07:50.496Z,937.86
2023-06-29T08:08:51.074Z,937.84
2023-06-29T08:09:51.929Z,937.82
2023-06-29T08:10:52.975Z,937.79
2023-06-29T08:11:53.708Z,937.86
2023-06-29T08:12:54.620Z,937.86
2023-06-29T08:13:55.255Z,937.86
2023-06-29T08:14:56.191Z,937.87
2023-06-29T08:15:56.387Z,937.83
2023-06-29T08:16:57.422Z,937.82
2023-06-29T08:17:57.861Z,937.85
2023-06-29T08:18:58.310Z,937.85
2023-06-29T08:19:58.858Z,937.78
2023-06-29T08:20:59.795Z,937.8
2023-06-29T08:22:00.320Z,937.75
2023-06-29T08:23:00.475Z,937.7
2023-06-29T08:24:01.186Z,937.7
2023-06-29T08:25:01.621Z,937.68
2023-06-29T08:26:02.616Z,937.73
2023-06-29T08:27:03.229Z,937.69
2023-06-29T08:28:04.212Z,937.74
2023-06-29T08:29:04.747Z,937.73
2023-06-29T08:30:05.552Z,937.73
2023-06-29T08:31:07.641Z,937.72
2023-06-29T08:32:07.560Z,937.74
2023-06-29T08:33:08.384Z,937.8
2023-06-29T08:34:09.054Z,937.75
2023-06-29T08:35:09.853Z,937.71
2023-06-29T08:36:10.575Z,937.7
2023-06-29T08:37:11.447Z,937.75
2023-06-29T08:38:12.145Z,937.72
2023-06-29T08:39:12.862Z,937.72
2023-06-29T08:40:13.894Z,937.73
2023-06-29T08:41:14.920Z,937.69
2023-06-29T08:42:15.078Z,937.67
2023-06-29T08:43:16.058Z,937.64
2023-06-29T08:44:16.600Z,937.65
2023-06-29T08:45:17.545Z,937.62
2023-06-29T08:46:17.803Z,937.68
2023-06-29T08:47:18.687Z,937.63
2023-06-29T08:48:18.888Z,937.62
2023-06-29T08:49:19.349Z,937.61
2023-06-29T08:50:19.942Z,937.61
2023-06-29T08:51:20.664Z,937.6
2023-06-29T08:52:20.805Z,937.57
2023-06-29T08:53:21.827Z,937.61
2023-06-29T08:54:22.136Z,937.62
2023-06-29T08:55:22.607Z,937.61
2023-06-29T08:56:23.245Z,937.63
2023-06-29T08:57:23.423Z,937.66
2023-06-29T08:58:24.475Z,937.61
2023-06-29T08:59:25.410Z,937.55
2023-06-29T09:00:28.075Z,937.57
2023-06-29T09:01:26.689Z,937.56
2023-06-29T09:02:27.537Z,937.51
2023-06-29T09:03:28.549Z,937.51
2023-06-29T09:04:28.980Z,937.52
2023-06-29T09:05:29.140Z,937.45
2023-06-29T09:06:30.254Z,937.48
2023-06-29T09:07:30.295Z,937.48
2023-06-29T09:08:31.111Z,937.46
2023-06-29T09:09:31.376Z,937.46
2023-06-29T09:10:32.018Z,937.42
2023-06-29T09:11:33.108Z,937.45
2023-06-29T09:12:33.538Z,937.44
2023-06-29T09:13:34.466Z,937.46
2023-06-29T09:14:34.808Z,937.47
2023-06-29T09:15:35.512Z,937.48
2023-06-29T09:16:36.330Z,937.47
2023-06-29T09:17:36.452Z,937.52
2023-06-29T09:18:36.707Z,937.51
2023-06-29T09:19:37.231Z,937.46
2023-06-29T09:20:38.167Z,937.47
2023-06-29T09:21:38.612Z,937.4
2023-06-29T09:22:39.341Z,937.42
2023-06-29T09:23:39.880Z,937.43
2023-06-29T09:24:49.515Z,937.37
2023-06-29T09:25:43.288Z,937.39
2023-06-29T09:26:44.149Z,937.38
2023-06-29T09:27:45.078Z,937.38
2023-06-29T09:28:45.353Z,937.42
2023-06-29T09:29:46.204Z,937.4
2023-06-29T09:30:47.327Z,937.4
2023-06-29T09:31:47.866Z,937.39
2023-06-29T09:32:48.279Z,937.41
2023-06-29T09:33:49.069Z,937.42
2023-06-29T09:34:50.062Z,937.37
2023-06-29T09:35:50.779Z,937.36
2023-06-29T09:36:51.614Z,937.4
2023-06-29T09:37:52.198Z,937.4
2023-06-29T09:38:53.082Z,937.43
2023-06-29T09:39:54.008Z,937.4
2023-06-29T09:40:55.011Z,937.38
2023-06-29T09:41:55.207Z,937.35
2023-06-29T09:42:55.418Z,937.33
2023-06-29T09:43:56.407Z,937.35
2023-06-29T09:44:56.958Z,937.36
2023-06-29T09:45:57.904Z,937.33
2023-06-29T09:49:11.238Z,937.34
2023-06-29T09:50:11.537Z,937.31
2023-06-29T09:51:12.129Z,937.32
2023-06-29T09:52:12.476Z,937.29
2023-06-29T09:53:13.217Z,937.26
2023-06-29T09:54:13.994Z,937.26
2023-06-29T09:55:14.513Z,937.26
2023-06-29T09:56:14.674Z,937.26
2023-06-29T09:57:14.798Z,937.21
2023-06-29T09:58:15.308Z,937.25
2023-06-29T09:59:15.472Z,937.23
2023-06-29T10:00:16.189Z,937.2
2023-06-29T10:01:17.509Z,937.15
2023-06-29T10:02:17.899Z,937.16
2023-06-29T10:03:18.482Z,937.14
2023-06-29T10:04:18.680Z,937.14
2023-06-29T10:05:19.276Z,937.14
2023-06-29T10:06:20.070Z,937.11
2023-06-29T10:07:20.798Z,937.1
2023-06-29T10:08:20.909Z,937.13
2023-06-29T10:09:21.554Z,937.1
2023-06-29T10:10:22.522Z,937.08
2023-06-29T10:11:23.115Z,937.07
2023-06-29T10:12:23.359Z,937.07
2023-06-29T10:13:23.946Z,937.07
2023-06-29T10:14:24.759Z,937.07
2023-06-29T10:15:25.477Z,937.04
2023-06-29T10:16:26.514Z,937.04
2023-06-29T10:17:27.420Z,937.03
2023-06-29T10:18:28.214Z,937.03
2023-06-29T10:19:28.466Z,937.02
2023-06-29T10:20:29.197Z,937.02
2023-06-29T10:21:29.499Z,937
2023-06-29T10:22:30.452Z,936.97
2023-06-29T10:23:31.195Z,937.01
2023-06-29T10:24:31.734Z,936.98
2023-06-29T10:25:32.759Z,936.95
2023-06-29T10:26:33.708Z,936.98
2023-06-29T10:27:34.516Z,937.01
2023-06-29T10:28:35.424Z,936.99
2023-06-29T10:29:35.543Z,936.95
2023-06-29T10:30:36.525Z,936.98
2023-06-29T10:31:37.298Z,936.94
2023-06-29T10:32:37.533Z,936.94
2023-06-29T10:33:37.977Z,936.93
2023-06-29T10:34:38.725Z,936.9
2023-06-29T10:35:39.700Z,936.89
2023-06-29T10:36:40.234Z,936.94
2023-06-29T10:37:40.416Z,936.92
2023-06-29T10:38:41.319Z,936.93
2023-06-29T10:39:41.385Z,936.95
2023-06-29T10:40:42.373Z,936.95
2023-06-29T10:41:42.767Z,936.95
2023-06-29T10:42:43.593Z,936.93
2023-06-29T10:43:44.175Z,936.85
2023-06-29T10:44:45.104Z,936.93
2023-06-29T10:45:45.226Z,936.92
2023-06-29T10:46:45.692Z,936.9
2023-06-29T10:47:46.324Z,936.88
2023-06-29T10:48:48.673Z,936.9
2023-06-29T10:49:47.512Z,936.87
2023-06-29T10:50:48.213Z,936.86
2023-06-29T10:51:48.268Z,936.85
2023-06-29T10:52:48.893Z,936.85
2023-06-29T10:53:49.847Z,936.81
2023-06-29T10:54:50.857Z,936.83
2023-06-29T10:55:51.927Z,936.83
2023-06-29T10:56:52.701Z,936.85
2023-06-29T10:57:53.673Z,936.84
2023-06-29T10:58:54.237Z,936.87
2023-06-29T10:59:55.089Z,936.88
2023-06-29T11:00:55.457Z,936.91
2023-06-29T11:01:56.242Z,936.91
2023-06-29T11:02:56.757Z,936.88
2023-06-29T11:03:57.093Z,936.85
2023-06-29T11:04:57.216Z,936.87
2023-06-29T11:05:57.644Z,936.85
2023-06-29T11:09:00.816Z,936.84
2023-06-29T11:10:01.753Z,936.82
2023-06-29T11:11:02.548Z,936.79
2023-06-29T11:12:03.274Z,936.82
2023-06-29T11:13:03.538Z,936.8
2023-06-29T11:14:04.282Z,936.81
2023-06-29T11:15:19.318Z,936.8
2023-06-29T11:16:05.683Z,936.82
2023-06-29T11:17:06.517Z,936.8
2023-06-29T11:18:07.316Z,936.8
2023-06-29T11:19:10.220Z,936.79
2023-06-29T11:20:09.027Z,936.8
2023-06-29T11:21:09.844Z,936.79
2023-06-29T11:22:10.963Z,936.78
2023-06-29T11:23:11.681Z,936.74
2023-06-29T11:24:12.261Z,936.68
2023-06-29T11:25:12.528Z,936.67
2023-06-29T11:26:13.486Z,936.66
2023-06-29T11:27:13.986Z,936.66
2023-06-29T11:28:14.757Z,936.66
2023-06-29T11:29:15.507Z,936.58
2023-06-29T11:30:15.815Z,936.61
2023-06-29T11:31:16.813Z,936.6
2023-06-29T11:32:17.027Z,936.59
2023-06-29T11:33:32.990Z,936.63
2023-06-29T11:34:18.679Z,936.62
2023-06-29T11:35:19.349Z,936.62
2023-06-29T11:36:20.033Z,936.54
2023-06-29T11:37:21.880Z,936.54
2023-06-29T11:38:21.906Z,936.49
2023-06-29T11:39:22.213Z,936.5
2023-06-29T11:40:22.819Z,936.51
2023-06-29T11:41:23.597Z,936.48
2023-06-29T11:42:24.330Z,936.47
2023-06-29T11:44:25.785Z,936.44
2023-06-29T11:45:26.724Z,936.42
2023-06-29T11:46:27.074Z,936.42
2023-06-29T11:48:27.977Z,936.38
2023-06-29T11:49:29.044Z,936.33
2023-06-29T11:50:29.654Z,936.33
2023-06-29T11:51:29.887Z,936.34
2023-06-29T11:52:30.701Z,936.37
2023-06-29T11:53:31.762Z,936.36
2023-06-29T11:54:31.896Z,936.37
2023-06-29T11:55:32.128Z,936.36
2023-06-29T11:56:32.890Z,936.3
2023-06-29T11:57:33.702Z,936.33
2023-06-29T11:58:34.515Z,936.33
2023-06-29T11:59:35.348Z,936.31
2023-06-29T12:00:36.008Z,936.29
2023-06-29T12:01:36.257Z,936.31
2023-06-29T12:02:37.175Z,936.29
2023-06-29T12:03:37.682Z,936.28
2023-06-29T12:04:38.167Z,936.26
2023-06-29T12:05:38.890Z,936.25
2023-06-29T12:06:39.986Z,936.22
2023-06-29T12:07:40.408Z,936.21
2023-06-29T12:08:41.110Z,936.18
2023-06-29T12:09:41.478Z,936.24
2023-06-29T12:10:41.751Z,936.16
2023-06-29T12:11:42.314Z,936.16
2023-06-29T12:12:42.863Z,936.12
2023-06-29T12:13:43.828Z,936.15
2023-06-29T12:14:44.720Z,936.13
2023-06-29T12:18:46.670Z,936.12
2023-06-29T12:19:59.274Z,936.12
2023-06-29T12:21:58.765Z,936.1
2023-06-29T12:22:58.917Z,936.08
2023-06-29T12:23:59.753Z,936.11
2023-06-29T12:25:00.491Z,936.11
2023-06-29T12:26:01.392Z,936.12
2023-06-29T12:27:02.172Z,936.08
2023-06-29T12:28:02.709Z,936.05
2023-06-29T12:29:03.708Z,936.05
2023-06-29T12:30:04.657Z,936.05
2023-06-29T12:31:05.032Z,935.99
2023-06-29T12:32:05.821Z,936.02
2023-06-29T12:33:06.586Z,936.01
2023-06-29T12:34:07.181Z,935.99
2023-06-29T12:35:08.178Z,936.02
2023-06-29T12:36:08.056Z,936.05
2023-06-29T12:37:08.613Z,936.02
2023-06-29T12:38:09.628Z,936.03
2023-06-29T12:39:10.389Z,936.03
2023-06-29T12:40:10.745Z,936.01
2023-06-29T12:41:10.931Z,936
2023-06-29T12:42:11.562Z,935.96
2023-06-29T12:43:11.693Z,935.96
2023-06-29T12:44:12.704Z,935.93
2023-06-29T12:45:13.730Z,935.92
2023-06-29T12:46:14.697Z,935.91
2023-06-29T12:47:15.770Z,935.95
2023-06-29T12:48:16.297Z,935.96
2023-06-29T12:49:17.342Z,935.94
2023-06-29T12:50:17.881Z,935.94
2023-06-29T12:51:18.579Z,935.94
2023-06-29T12:52:19.383Z,935.96
2023-06-29T12:53:20.354Z,935.93
2023-06-29T12:54:21.141Z,935.92
2023-06-29T12:55:21.915Z,935.95
2023-06-29T12:56:22.359Z,935.96
2023-06-29T12:57:22.921Z,935.98
2023-06-29T12:58:23.865Z,935.93
2023-06-29T12:59:24.437Z,935.9
2023-06-29T13:00:25.432Z,935.93
2023-06-29T13:01:25.779Z,935.9